• Join FlightAware (Why Join?)
  • Login
  • US Flag 
01:38PM EDT


 

Airport Tracker/Info


-or-


 

Live Flight TrackerFlight Track Log ✈ SKW6306 ✈ 16-Jun-2013 ✈ CYXE - KDEN

Flight Track Log - Related Links

Times and Time Zones

All times are in EDT time to prevent confusion due to time zone crossing. See the SKW6306 flight status page for this flight to view local times or setup timezone preferences in your user account.

Time Position Orientation Groundspeed Altitude Reporting Facility
EDT Latitude Longitude Course Direction KTS MPH feet Rate Location/Type
06:26PM 52.1667 -106.8333 198° South 210 242 3,800  Level Winnipeg Center
06:27PM 52.1000 -106.9000 212° Southwest 260 299 6,200 2,220 Climbing Winnipeg Center
06:28PM 51.8315 -106.8829 199° South  Level FlightAware Approximate
06:28PM 52.0333 -106.9500 205° Southwest 290 334 8,300  Level Winnipeg Center
06:29PM 51.7179 -106.9411 197° South  Level FlightAware Approximate
06:29PM 51.9500 -106.9500 180° South 300 345 10,500  Level Winnipeg Center
06:30PM 51.6048 -106.9952 212° Southwest  Level FlightAware Approximate
06:30PM 51.8667 -107.0167 206° Southwest 320 368 11,900  Level Winnipeg Center
06:31PM 51.4923 -107.0576 198° South  Level FlightAware Approximate
06:31PM 51.7667 -107.0500 192° South 350 403 13,400  Level Winnipeg Center
06:32PM 51.6667 -107.1167 202° Southwest 360 414 15,000 1,440 Climbing Winnipeg Center
06:33PM 51.5667 -107.1333 186° South 370 426 16,300 1,320 Climbing Winnipeg Center
06:34PM 51.4500 -107.2000 200° South 380 437 17,700 1,200 Climbing Winnipeg Center
06:35PM 51.3667 -107.2333 194° South 390 449 18,800 1,080 Climbing Winnipeg Center
06:36PM 51.2500 -107.2833 195° South 400 460 19,900 1,080 Climbing Winnipeg Center
06:37PM 51.1333 -107.3333 195° South 400 460 21,000 960 Climbing Winnipeg Center
06:38PM 51.0333 -107.4000 203° Southwest 410 472 21,900 900 Climbing Winnipeg Center
06:39PM 50.9333 -107.4333 192° South 410 472 22,800 840 Climbing Winnipeg Center
06:40PM 50.8167 -107.4833 195° South 420 483 23,600 780 Climbing Winnipeg Center
06:41PM 50.7000 -107.5333 195° South 420 483 24,400 720 Climbing Winnipeg Center
06:42PM 50.6000 -107.5833 198° South 420 483 25,100 600 Climbing Winnipeg Center
06:43PM 50.4667 -107.6333 193° South 430 495 25,700 600 Climbing Winnipeg Center
06:44PM 50.3500 -107.6833 195° South 430 495 26,400 480 Climbing Winnipeg Center
06:45PM 50.2500 -107.7167 192° South 430 495 26,700 420 Climbing Winnipeg Center
06:46PM 50.1167 -107.7333 185° South 440 506 27,300 540 Climbing Winnipeg Center
06:47PM 49.9833 -107.7667 189° South 450 518 27,800 480 Climbing Winnipeg Center
06:48PM 49.8667 -107.7667 180° South 440 506 28,300 480 Climbing Winnipeg Center
06:49PM 49.7500 -107.7833 185° South 450 518 28,800 480 Climbing Winnipeg Center
06:50PM 49.6167 -107.7833 180° South 440 506 29,300 480 Climbing Winnipeg Center
06:51PM 49.5000 -107.8000 185° South 440 506 29,800 540 Climbing Winnipeg Center
06:52PM 49.3833 -107.8333 191° South 450 518 30,400 480 Climbing Winnipeg Center
06:53PM 49.2500 -107.8333 180° South 430 495 30,800 480 Climbing Winnipeg Center
06:54PM 49.1333 -107.8500 185° South 440 506 31,400 540 Climbing Winnipeg Center
06:55PM 49.0167 -107.8500 180° South 420 483 31,900 480 Climbing Winnipeg Center
06:56PM 48.9167 -107.8833 192° South 420 483 32,400 420 Climbing Winnipeg Center
06:57PM 48.8531 -107.8558 164° South 417 480 32,700 300 Climbing Salt Lake Center
06:58PM 48.7378 -107.8669 184° South 417 480 33,000 120 Climbing Salt Lake Center
06:59PM 48.6250 -107.8808 185° South 411 473 33,000  Level Salt Lake Center
07:00PM 48.5094 -107.8936 184° South 414 476 33,000  Level Salt Lake Center
07:01PM 48.3903 -107.9067 184° South 422 486 33,000  Level Salt Lake Center
07:02PM 48.2708 -107.9086 181° South 428 493 33,000  Level Salt Lake Center
07:03PM 48.1486 -107.8739 169° South 443 510 33,000  Level Salt Lake Center
07:04PM 48.0297 -107.8419 170° South 441 507 33,000  Level Salt Lake Center
07:05PM 47.8825 -107.8008 169° South 448 516 33,000  Level Salt Lake Center
07:06PM 47.7600 -107.7686 170° South 448 516 33,000  Level Salt Lake Center
07:07PM 47.6381 -107.7353 170° South 447 514 33,000  Level Salt Lake Center
07:08PM 47.5158 -107.7033 170° South 447 514 33,000  Level Salt Lake Center
07:09PM 47.3969 -107.6711 170° South 445 512 33,000  Level Salt Lake Center
07:10PM 47.2614 -107.6336 169° South 444 511 33,000  Level Salt Lake Center
07:11PM 47.1447 -107.6039 170° South 444 511 33,000  Level Salt Lake Center
07:12PM 47.0083 -107.5686 170° South 446 513 33,000  Level Salt Lake Center
07:13PM 46.8908 -107.5378 170° South 447 514 33,000  Level Salt Lake Center
07:14PM 46.7725 -107.5058 170° South 449 517 33,000  Level Salt Lake Center
07:15PM 46.6339 -107.4706 170° South 452 520 33,000  Level Salt Lake Center
07:16PM 46.5158 -107.4394 170° South 452 520 33,000  Level Salt Lake Center
07:17PM 46.3772 -107.4022 170° South 453 521 33,000  Level Salt Lake Center
07:18PM 46.2586 -107.3722 170° South 452 520 33,000  Level Salt Lake Center
07:19PM 46.1406 -107.3442 171° South 450 518 33,000  Level Salt Lake Center
07:20PM 46.0011 -107.3072 170° South 454 522 33,000  Level Salt Lake Center
07:21PM 45.8825 -107.2764 170° South 453 521 33,000  Level Salt Lake Center
07:22PM 45.7433 -107.2419 170° South 454 522 33,000  Level Salt Lake Center
07:23PM 45.6242 -107.2128 170° South 453 521 33,000  Level Salt Lake Center
07:24PM 45.5044 -107.1822 170° South 456 525 33,000  Level Salt Lake Center
07:25PM 45.3647 -107.1447 169° South 457 526 33,000  Level Salt Lake Center
07:26PM 45.2481 -107.1208 172° South 448 516 33,000  Level Salt Lake Center
07:27PM 45.1081 -107.0858 170° South 454 522 33,000  Level Salt Lake Center
07:28PM 44.9889 -107.0558 170° South 453 521 33,000  Level Salt Lake Center
07:29PM 44.8692 -107.0283 171° South 453 521 33,000  Level Salt Lake Center
07:30PM 44.7303 -106.9931 170° South 451 519 33,000  Level Salt Lake Center
07:31PM 44.6114 -106.9642 170° South 452 520 33,000  Level Salt Lake Center
07:32PM 44.4914 -106.9378 171° South 454 522 33,000  Level Salt Lake Center
07:34PM 44.3517 -106.9047 170° South 455 524 33,000  Level Salt Lake Center
07:35PM 44.2333 -106.8767 170° South 452 520 33,000  Level Salt Lake Center
07:35PM 44.1714 -106.8600 169° South 450 518 33,000  Level Denver Center
07:36PM 44.0947 -106.8422 171° South 452 520 33,000  Level Salt Lake Center
07:37PM 43.9728 -106.8142 171° South 452 520 33,000  Level Salt Lake Center
07:38PM 43.8511 -106.7903 172° South 460 529 33,000  Level Salt Lake Center
07:38PM 43.7750 -106.7683 168° South 453 521 33,000  Level Denver Center
07:39PM 43.6569 -106.7389 170° South 451 519 33,000  Level Denver Center
07:40PM 43.5578 -106.7169 171° South 452 520 33,000  Level Denver Center
07:41PM 43.3994 -106.6797 170° South 453 521 33,000  Level Denver Center
07:42PM 43.2614 -106.6483 171° South 451 519 33,000  Level Denver Center
07:43PM 43.1450 -106.6222 171° South 445 512 33,000  Level Denver Center
07:44PM 43.0078 -106.5897 170° South 451 519 33,000  Level Denver Center
07:45PM 42.8914 -106.5642 171° South 444 511 33,000  Level Denver Center
07:46PM 42.7536 -106.5331 171° South 449 517 33,000  Level Denver Center
07:47PM 42.6375 -106.5064 170° South 445 512 33,000  Level Denver Center
07:49PM 42.4997 -106.4756 171° South 448 516 33,000  Level Denver Center
07:50PM 42.3828 -106.4500 171° South 448 516 33,000  Level Denver Center
07:51PM 42.2647 -106.4233 171° South 449 517 33,000 -540 Level Denver Center
07:52PM 42.1219 -106.3919 171° South 461 531 32,000 -540 Descending Denver Center
07:53PM 41.9994 -106.3636 170° South 468 539 32,000  Level Denver Center
07:54PM 41.8597 -106.3333 171° South 460 529 32,000  Level Denver Center
07:55PM 41.7394 -106.3075 171° South 457 526 32,000 -60 Level Denver Center
07:56PM 41.6022 -106.2767 170° South 450 518 31,900 -600 Descending Denver Center
07:57PM 41.4858 -106.2503 170° South 445 512 30,800 -1,140 Descending Denver Center
07:58PM 41.3556 -106.2014 164° South 437 503 29,600 -1,260 Descending Denver Center
07:59PM 41.2442 -106.1533 162° South 439 505 28,200 -1,260 Descending Denver Center
08:00PM 41.1178 -106.0994 162° South 431 496 27,000 -600 Descending Denver Center
08:01PM 41.0172 -106.0408 156° South 416 479 27,000 -540 Level Denver Center
08:02PM 40.8922 -105.9644 155° Southeast 420 483 25,900 -1,080 Descending Denver Center
08:03PM 40.8325 -105.8561 126° Southeast 450 518 24,900 -1,260 Descending Denver Center
08:04PM 40.7478 -105.6997 126° Southeast 437 503 23,400 -1,380 Descending Denver Center
08:05PM 40.6819 -105.5828 127° Southeast 406 467 22,100 -1,260 Descending Denver Center
08:06PM 40.6181 -105.4667 126° Southeast 394 453 20,800 -1,260 Descending Denver Center
08:07PM 40.5550 -105.3533 126° Southeast 385 443 19,500 -1,380 Descending Denver Center
08:08PM 40.4975 -105.2467 125° Southeast 365 420 18,000 -1,380 Descending Denver Center
08:09PM 40.4600 -105.1228 112° Southeast 382 440 16,700 -1,260 Descending Denver Center
08:10PM 40.4172 -104.9731 111° Southeast 359 413 15,400 -960 Descending Denver Center
08:11PM 40.3794 -104.8703 116° Southeast 298 343 14,800 -960 Descending Denver Center
08:12PM 40.3239 -104.8072 139° Southeast 270 311 13,500 -1,260 Descending Denver Center
08:13PM 40.2639 -104.7581 148° Southeast 257 296 12,200 -1,440 Descending Denver Center
08:14PM 40.2017 -104.7050 147° Southeast 250 288 10,600 -1,080 Descending Denver Center
08:15PM 40.1353 -104.6942 173° South 243 280 10,000 -960 Descending Denver Center
08:16PM 40.0656 -104.6939 180° South 234 269 8,700 -1,200 Descending Denver Center
08:17PM 40.0092 -104.6947 181° South 193 222 7,600 -1,080 Descending Denver Center
08:18PM 39.9558 -104.6953 180° South 177 204 6,500 -1,080 Descending Denver Center